Honolulu, HI

10:22 PM HST on August 21, 2014 (GMT -1000)
Honolulu International | Change Station
CLOSE
Current Station
Airport
Location: Honolulu,
Elevation: 16 ft
Nearby Weather Stations

Elev 16 ft 21.32 °N, 157.92 °W | Updated 29 minutes ago

Light Rain
Light Rain
80 °F
Feels Like 83 °F
N
13
Wind Variable Wind from ENE

Today
High -- | Low -- °F
--% Chance of Precip.
Yesterday
High -- | Low -- °F
Precip. -- in
6:11 AM 6:56 PM
Waning Crescent, 9% visible
Pressure 30.03 in
Visibility 10.0 miles
Clouds Few 3400 ft
Scattered Clouds 4900 ft
Mostly Cloudy 6000 ft
Heat Index 83 °F
Dew Point 70 °F
Humidity 71%
Rainfall 0.00 in
Snow Depth Not available.
UV 0 out of 12
Pollen Not available.
PM2.5 Good
Flu Activity Not available.
METAR PHNL 220753Z 06011KT 10SM -RA FEW034 SCT049 BKN060 27/21 A3003 RMK AO2 RAE02B40 SLP168 P0000 T02670211

More Conditions Fewer Conditions

Pressure 30.03 in
Visibility 10.0 miles
Clouds Few 3400 ft
Scattered Clouds 4900 ft
Mostly Cloudy 6000 ft
Heat Index 83 °F
Dew Point 70 °F
Humidity 71%
Rainfall 0.00 in
Snow Depth Not available.
UV 0 out of 12
Pollen Not available.
PM2.5 Good
Flu Activity Not available.
METAR PHNL 220753Z 06011KT 10SM -RA FEW034 SCT049 BKN060 27/21 A3003 RMK AO2 RAE02B40 SLP168 P0000 T02670211

More Conditions Fewer Conditions

10-Day Weather Forecast

Almanac

Astronomy

Aug. 21, 2014 Rise Set
Actual Time 6:11 AM HST 6:56 PM HST
Civil Twilight 5:48 AM HST 7:19 PM HST
Nautical Twilight 5:21 AM HST 7:46 PM HST
Astronomical Twilight 4:54 AM HST 8:13 PM HST
Moon 3:03 AM HST (8/21) 4:23 PM HST (8/21)
Length of Visible Light 13h 30m
Length of Day
12h 44m
Tomorrow will be 1m 7s shorter.
Waning Crescent, 9% of the Moon is Illuminated
Aug 22
Waning Crescent
Aug 25
New
Sep 2
First Quarter
Sep 8
Full
Sep 15
Last Quarter

Yesterday's Extremes

State Highs State Lows

Community

WunderPhotos

Upload Photos

1,746,144 photos uploaded!

Nearby

Air Quality

  Air Quality AQ Index Pollutant
Yesterday Good
PM10
Current Good
PM2.5
Thursday Good
OZONE
Friday Good
OZONE

Snow Depth

Station Depth Elevation
No new snow has been reported.

Earthquake Activity

City Distance Mag. Time & Date
No recent earthquake activity has been reported nearby.
Minimum magnitude displayed is 2.5.

Coastal Water Temperatures

Place Temperature
No Stations Reporting

Nearby Weather Stations